Main page
METAR-TAF:

METAR-TAF

Airports :

Schwäbisch Hall, Germany

latitude: 49-07-06N, longitude: 9-47-02E, elevation: 398 m

Current weather observation

The report was made 38 minutes ago, at 07:20 UTC
Wind 5 kt from the East
Temperature -9°C
Humidity 100%
Pressure 1013 hPa
Visibility: 6000 m
Scattered clouds at a height of 2500 ft
Broken clouds at a height of 17000 ft

METAR: EDTY 200720Z 10005KT 6000 SCT025 BKN170 M09/M09 Q1013

Time: 08:58 (07:58 UTC)

Forecast

The report was made 14 hours and 58 minutes ago, at 17:00 UTC
Forecast valid from 19 at 18 UTC to 20 at 03 UTC
Wind 2 kt from variable directions
Visibility 10 km or more
no clouds below 1500 m and no cumulonimbus
Temporary
from 19 at 18 UTC to 20 at 03 UTC
Broken clouds at a height of 1200 ft

TAF: EDTY 191700Z 1918/2003 VRB02KT CAVOK TEMPO 1918/2003 BKN012

Weather observations and forecasts of more than 4000 airports (METAR and TAF reports).

The available stations are represented by yellow and red dots on the map.

Hover mouse over dot to see the name of the station.

Then click to see weather observations and forecasts.

To change the map : click on the green buttons with a black cross to zoom in, on the green button with a dash to zoom out, or on the green arrows for adjacent maps.


METAR-TAF: